Time,TemperatureF,DewpointF,PressureIn,WindDirection,WindDirectionDegrees,WindSpeedMPH,WindSpeedGustMPH,Humidity,HourlyPrecipIn,Conditions,Clouds,dailyrainin,SoftwareType,DateUTC
2013-07-19 00:02:00,80.6,75.2,30.31,North,6,1.2,-999.9,84,-99.99,,,-99.99,,2013-07-19 04:02:00,
2013-07-19 00:06:00,80.6,75.2,30.31,North,6,1.2,-999.9,84,-99.99,,,-99.99,,2013-07-19 04:06:00,
2013-07-19 00:12:00,80.6,75.2,30.31,North,0,0.0,-999.9,84,-99.99,,,-99.99,,2013-07-19 04:12:00,
2013-07-19 00:14:00,80.6,75.2,30.31,North,0,0.0,-999.9,84,-99.99,,,-99.99,,2013-07-19 04:14:00,
2013-07-19 00:18:00,80.6,75.2,30.31,North,0,0.0,-999.9,84,-99.99,,,-99.99,,2013-07-19 04:18:00,
2013-07-19 00:24:00,80.6,75.2,30.31,North,0,0.0,-999.9,84,-99.99,,,-99.99,,2013-07-19 04:24:00,
2013-07-19 00:30:00,80.6,75.2,30.31,North,0,0.0,-999.9,84,-99.99,,,-99.99,,2013-07-19 04:30:00,
2013-07-19 00:32:00,80.6,75.2,30.31,North,0,0.0,-999.9,84,-99.99,,,-99.99,,2013-07-19 04:32:00,
2013-07-19 00:38:00,80.6,75.2,30.31,North,0,0.0,-999.9,84,-99.99,,,-99.99,,2013-07-19 04:38:00,
2013-07-19 00:44:00,80.6,75.2,30.31,North,0,0.0,-999.9,84,-99.99,,,-99.99,,2013-07-19 04:44:00,
2013-07-19 00:50:00,80.6,75.2,30.31,North,0,0.0,-999.9,84,-99.99,,,-99.99,,2013-07-19 04:50:00,
2013-07-19 00:56:00,80.6,75.2,30.31,North,0,0.0,-999.9,84,-99.99,,,-99.99,,2013-07-19 04:56:00,
2013-07-19 01:32:00,78.8,75.2,30.31,North,0,0.0,-999.9,89,-99.99,,,-99.99,,2013-07-19 05:32:00,
2013-07-19 01:38:00,78.8,75.2,30.31,North,0,0.0,-999.9,89,-99.99,,,-99.99,,2013-07-19 05:38:00,
2013-07-19 01:44:00,78.8,75.2,30.31,North,0,0.0,-999.9,89,-99.99,,,-99.99,,2013-07-19 05:44:00,
2013-07-19 01:50:00,78.8,75.2,30.31,North,0,0.0,-999.9,89,-99.99,,,-99.99,,2013-07-19 05:50:00,
2013-07-19 02:02:00,78.8,75.2,30.31,North,0,0.0,-999.9,89,-99.99,,,-99.99,,2013-07-19 06:02:00,
2013-07-19 02:08:00,78.8,75.2,30.31,North,0,0.0,-999.9,89,-99.99,,,-99.99,,2013-07-19 06:08:00,
2013-07-19 02:14:00,78.8,75.2,30.31,North,0,0.0,-999.9,89,-99.99,,,-99.99,,2013-07-19 06:14:00,
2013-07-19 02:20:00,78.8,75.2,30.31,North,0,0.0,-999.9,89,-99.99,,,-99.99,,2013-07-19 06:20:00,
2013-07-19 02:26:00,78.8,75.2,30.31,North,0,0.0,-999.9,89,-99.99,,,-99.99,,2013-07-19 06:26:00,
2013-07-19 02:32:00,78.8,75.2,30.31,North,0,0.0,-999.9,89,-99.99,,,-99.99,,2013-07-19 06:32:00,
2013-07-19 02:38:00,78.8,75.2,30.31,North,0,0.0,-999.9,89,-99.99,,,-99.99,,2013-07-19 06:38:00,
2013-07-19 02:44:00,77.0,73.4,30.31,North,0,0.0,-999.9,89,-99.99,,,-99.99,,2013-07-19 06:44:00,
2013-07-19 02:50:00,77.0,73.4,30.31,North,0,0.0,-999.9,89,-99.99,,,-99.99,,2013-07-19 06:50:00,
2013-07-19 02:56:00,77.0,73.4,30.30,North,0,0.0,-999.9,89,-99.99,,,-99.99,,2013-07-19 06:56:00,
2013-07-19 03:02:00,77.0,73.4,30.31,North,0,0.0,-999.9,89,-99.99,,,-99.99,,2013-07-19 07:02:00,
2013-07-19 03:08:00,77.0,73.4,30.31,North,0,0.0,-999.9,89,-99.99,,,-99.99,,2013-07-19 07:08:00,
2013-07-19 03:14:00,77.0,73.4,30.31,North,0,0.0,-999.9,89,-99.99,,,-99.99,,2013-07-19 07:14:00,
2013-07-19 03:20:00,77.0,73.4,30.31,North,0,0.0,-999.9,89,-99.99,,,-99.99,,2013-07-19 07:20:00,
2013-07-19 03:26:00,77.0,73.4,30.31,North,0,0.0,-999.9,89,-99.99,,,-99.99,,2013-07-19 07:26:00,
2013-07-19 03:32:00,77.0,73.4,30.31,North,0,0.0,-999.9,89,-99.99,,,-99.99,,2013-07-19 07:32:00,
2013-07-19 03:38:00,77.0,73.4,30.31,North,0,0.0,-999.9,89,-99.99,,,-99.99,,2013-07-19 07:38:00,
2013-07-19 03:44:00,77.0,73.4,30.31,North,0,0.0,-999.9,89,-99.99,,,-99.99,,2013-07-19 07:44:00,
2013-07-19 03:50:00,77.0,73.4,30.31,North,0,0.0,-999.9,89,-99.99,,,-99.99,,2013-07-19 07:50:00,
2013-07-19 03:56:00,77.0,73.4,30.30,North,0,0.0,-999.9,89,-99.99,,,-99.99,,2013-07-19 07:56:00,
2013-07-19 04:02:00,77.0,75.2,30.30,North,0,0.0,-999.9,94,-99.99,,,-99.99,,2013-07-19 08:02:00,
2013-07-19 04:04:00,77.0,75.2,30.30,North,0,0.0,-999.9,94,-99.99,,,-99.99,,2013-07-19 08:04:00,
2013-07-19 04:10:00,77.0,75.2,30.30,North,0,0.0,-999.9,94,-99.99,,,-99.99,,2013-07-19 08:10:00,
2013-07-19 04:16:00,77.0,75.2,30.30,North,0,0.0,-999.9,94,-99.99,,,-99.99,,2013-07-19 08:16:00,
2013-07-19 04:22:00,77.0,75.2,30.30,North,0,0.0,-999.9,94,-99.99,,,-99.99,,2013-07-19 08:22:00,
2013-07-19 04:28:00,77.0,75.2,30.30,North,0,0.0,-999.9,94,-99.99,,,-99.99,,2013-07-19 08:28:00,
2013-07-19 04:34:00,77.0,75.2,30.30,North,0,0.0,-999.9,94,-99.99,,,-99.99,,2013-07-19 08:34:00,
2013-07-19 04:40:00,77.0,75.2,30.30,North,0,0.0,-999.9,94,-99.99,,,-99.99,,2013-07-19 08:40:00,
2013-07-19 04:46:00,77.0,75.2,30.29,North,0,0.0,-999.9,94,-99.99,,,-99.99,,2013-07-19 08:46:00,
2013-07-19 04:52:00,77.0,75.2,30.30,North,0,0.0,-999.9,94,-99.99,,,-99.99,,2013-07-19 08:52:00,
2013-07-19 04:58:00,77.0,75.2,30.30,North,0,0.0,-999.9,94,-99.99,,,-99.99,,2013-07-19 08:58:00,
2013-07-19 05:04:00,77.0,75.2,30.29,North,0,0.0,-999.9,94,-99.99,,,-99.99,,2013-07-19 09:04:00,
2013-07-19 05:10:00,77.0,75.2,30.29,North,0,0.0,-999.9,94,-99.99,,,-99.99,,2013-07-19 09:10:00,
2013-07-19 05:16:00,77.0,75.2,30.29,North,0,0.0,-999.9,94,-99.99,,,-99.99,,2013-07-19 09:16:00,
2013-07-19 05:22:00,77.0,75.2,30.29,North,0,0.0,-999.9,94,-99.99,,,-99.99,,2013-07-19 09:22:00,
2013-07-19 05:28:00,77.0,75.2,30.29,North,0,0.0,-999.9,94,-99.99,,,-99.99,,2013-07-19 09:28:00,
2013-07-19 05:34:00,77.0,75.2,30.29,North,0,0.0,-999.9,94,-99.99,,,-99.99,,2013-07-19 09:34:00,
2013-07-19 05:40:00,77.0,75.2,30.29,North,0,0.0,-999.9,94,-99.99,,,-99.99,,2013-07-19 09:40:00,
2013-07-19 05:46:00,77.0,75.2,30.29,North,0,0.0,-999.9,94,-99.99,,,-99.99,,2013-07-19 09:46:00,
2013-07-19 05:52:00,77.0,75.2,30.29,North,0,0.0,-999.9,94,-99.99,,,-99.99,,2013-07-19 09:52:00,
2013-07-19 05:58:00,77.0,75.2,30.29,North,0,0.0,-999.9,94,-99.99,,,-99.99,,2013-07-19 09:58:00,
2013-07-19 06:04:00,77.0,75.2,30.29,North,0,0.0,-999.9,94,-99.99,,,-99.99,,2013-07-19 10:04:00,
2013-07-19 06:10:00,77.0,75.2,30.29,North,0,0.0,-999.9,94,-99.99,,,-99.99,,2013-07-19 10:10:00,
2013-07-19 06:16:00,77.0,75.2,30.29,North,0,0.0,-999.9,94,-99.99,,,-99.99,,2013-07-19 10:16:00,
2013-07-19 06:22:00,77.0,75.2,30.29,North,0,0.0,-999.9,94,-99.99,,,-99.99,,2013-07-19 10:22:00,
2013-07-19 06:28:00,77.0,75.2,30.29,North,0,0.0,-999.9,94,-99.99,,,-99.99,,2013-07-19 10:28:00,
2013-07-19 06:34:00,77.0,75.2,30.29,North,0,0.0,-999.9,94,-99.99,,,-99.99,,2013-07-19 10:34:00,
2013-07-19 06:40:00,77.0,75.2,30.29,North,0,0.0,-999.9,94,-99.99,,,-99.99,,2013-07-19 10:40:00,
2013-07-19 06:46:00,78.8,75.2,30.29,North,0,0.0,-999.9,89,-99.99,,,-99.99,,2013-07-19 10:46:00,
2013-07-19 06:52:00,78.8,73.4,30.29,North,0,0.0,-999.9,83,-99.99,,,-99.99,,2013-07-19 10:52:00,
2013-07-19 06:58:00,78.8,73.4,30.29,North,0,0.0,-999.9,83,-99.99,,,-99.99,,2013-07-19 10:58:00,
2013-07-19 07:04:00,80.6,75.2,30.29,SSE,147,1.2,-999.9,84,-99.99,,,-99.99,,2013-07-19 11:04:00,
2013-07-19 07:10:00,80.6,75.2,30.29,SSE,147,1.2,-999.9,84,-99.99,,,-99.99,,2013-07-19 11:10:00,
2013-07-19 07:16:00,80.6,73.4,30.29,SE,142,0.0,-999.9,79,-99.99,,,-99.99,,2013-07-19 11:16:00,
2013-07-19 07:22:00,80.6,73.4,30.29,SSE,153,2.3,-999.9,79,-99.99,,,-99.99,,2013-07-19 11:22:00,
2013-07-19 07:28:00,80.6,73.4,30.29,SSE,153,2.3,-999.9,79,-99.99,,,-99.99,,2013-07-19 11:28:00,
2013-07-19 07:34:00,82.4,73.4,30.28,SE,141,0.0,-999.9,74,-99.99,,,-99.99,,2013-07-19 11:34:00,
2013-07-19 07:40:00,82.4,73.4,30.28,SE,141,0.0,-999.9,74,-99.99,,,-99.99,,2013-07-19 11:40:00,
2013-07-19 07:46:00,82.4,73.4,30.28,SSE,147,1.2,-999.9,74,-99.99,,,-99.99,,2013-07-19 11:46:00,
2013-07-19 07:52:00,82.4,73.4,30.28,SE,143,1.2,-999.9,74,-99.99,,,-99.99,,2013-07-19 11:52:00,
2013-07-19 07:58:00,82.4,73.4,30.28,SE,143,1.2,-999.9,74,-99.99,,,-99.99,,2013-07-19 11:58:00,
2013-07-19 08:04:00,84.2,73.4,30.28,North,0,0.0,-999.9,70,-99.99,,,-99.99,,2013-07-19 12:04:00,
2013-07-19 08:10:00,84.2,73.4,30.28,North,0,0.0,-999.9,70,-99.99,,,-99.99,,2013-07-19 12:10:00,
2013-07-19 08:16:00,84.2,73.4,30.28,SE,135,3.5,-999.9,70,-99.99,,,-99.99,,2013-07-19 12:16:00,
2013-07-19 08:22:00,86.0,73.4,30.28,SSE,152,1.2,-999.9,66,-99.99,,,-99.99,,2013-07-19 12:22:00,
2013-07-19 08:28:00,86.0,73.4,30.28,SSE,152,1.2,-999.9,66,-99.99,,,-99.99,,2013-07-19 12:28:00,
2013-07-19 08:34:00,86.0,73.4,30.28,North,0,0.0,-999.9,66,-99.99,,,-99.99,,2013-07-19 12:34:00,
2013-07-19 08:40:00,86.0,73.4,30.28,North,0,0.0,-999.9,66,-99.99,,,-99.99,,2013-07-19 12:40:00,
2013-07-19 08:46:00,87.8,75.2,30.27,SSE,149,2.3,-999.9,66,-99.99,,,-99.99,,2013-07-19 12:46:00,
2013-07-19 08:52:00,87.8,75.2,30.27,SE,125,2.3,-999.9,66,-99.99,,,-99.99,,2013-07-19 12:52:00,
2013-07-19 08:58:00,87.8,75.2,30.27,SE,125,2.3,-999.9,66,-99.99,,,-99.99,,2013-07-19 12:58:00,
2013-07-19 09:04:00,87.8,73.4,30.27,SE,132,4.6,-999.9,62,-99.99,,,-99.99,,2013-07-19 13:04:00,
2013-07-19 09:10:00,87.8,73.4,30.27,SE,132,4.6,-999.9,62,-99.99,,,-99.99,,2013-07-19 13:10:00,
2013-07-19 09:16:00,89.6,73.4,30.27,SSE,155,2.3,-999.9,59,-99.99,,,-99.99,,2013-07-19 13:16:00,
2013-07-19 09:22:00,89.6,73.4,30.27,SSE,167,1.2,-999.9,59,-99.99,,,-99.99,,2013-07-19 13:22:00,
2013-07-19 09:28:00,89.6,73.4,30.27,SSE,167,1.2,-999.9,59,-99.99,,,-99.99,,2013-07-19 13:28:00,
2013-07-19 09:34:00,91.4,73.4,30.27,North,0,0.0,-999.9,55,-99.99,,,-99.99,,2013-07-19 13:34:00,
2013-07-19 09:40:00,91.4,73.4,30.27,North,0,0.0,-999.9,55,-99.99,,,-99.99,,2013-07-19 13:40:00,
2013-07-19 09:46:00,93.2,71.6,30.26,North,0,0.0,-999.9,49,-99.99,,,-99.99,,2013-07-19 13:46:00,
2013-07-19 09:52:00,93.2,71.6,30.26,SE,129,3.5,-999.9,49,-99.99,,,-99.99,,2013-07-19 13:52:00,
2013-07-19 09:58:00,93.2,71.6,30.26,SE,129,3.5,-999.9,49,-99.99,,,-99.99,,2013-07-19 13:58:00,
2013-07-19 10:04:00,93.2,71.6,30.25,WNW,284,0.0,-999.9,49,-99.99,,,-99.99,,2013-07-19 14:04:00,
2013-07-19 10:10:00,93.2,71.6,30.25,WNW,284,0.0,-999.9,49,-99.99,,,-99.99,,2013-07-19 14:10:00,
2013-07-19 10:16:00,95.0,73.4,30.25,SE,132,2.3,-999.9,49,-99.99,,,-99.99,,2013-07-19 14:16:00,
2013-07-19 10:22:00,95.0,73.4,30.25,SE,128,3.5,-999.9,49,-99.99,,,-99.99,,2013-07-19 14:22:00,
2013-07-19 10:28:00,95.0,73.4,30.25,SE,128,3.5,-999.9,49,-99.99,,,-99.99,,2013-07-19 14:28:00,
2013-07-19 10:34:00,95.0,71.6,30.25,North,0,0.0,-999.9,47,-99.99,,,-99.99,,2013-07-19 14:34:00,
2013-07-19 10:40:00,95.0,71.6,30.25,North,0,0.0,-999.9,47,-99.99,,,-99.99,,2013-07-19 14:40:00,
2013-07-19 10:46:00,95.0,73.4,30.24,SSE,165,1.2,-999.9,49,-99.99,,,-99.99,,2013-07-19 14:46:00,
2013-07-19 10:52:00,95.0,73.4,30.24,SE,138,1.2,-999.9,49,-99.99,,,-99.99,,2013-07-19 14:52:00,
2013-07-19 10:58:00,95.0,73.4,30.24,SE,138,1.2,-999.9,49,-99.99,,,-99.99,,2013-07-19 14:58:00,
2013-07-19 11:04:00,95.0,71.6,30.24,ENE,65,1.2,-999.9,47,-99.99,,,-99.99,,2013-07-19 15:04:00,
2013-07-19 11:10:00,95.0,71.6,30.24,ENE,65,1.2,-999.9,47,-99.99,,,-99.99,,2013-07-19 15:10:00,
2013-07-19 11:16:00,96.8,73.4,30.24,East,99,2.3,-999.9,47,-99.99,,,-99.99,,2013-07-19 15:16:00,
2013-07-19 11:22:00,96.8,73.4,30.24,SSE,162,3.5,-999.9,47,-99.99,,,-99.99,,2013-07-19 15:22:00,
2013-07-19 11:28:00,96.8,73.4,30.24,SSE,162,3.5,-999.9,47,-99.99,,,-99.99,,2013-07-19 15:28:00,
2013-07-19 11:34:00,96.8,73.4,30.23,South,180,1.2,-999.9,47,-99.99,,,-99.99,,2013-07-19 15:34:00,
2013-07-19 11:40:00,96.8,73.4,30.23,South,180,1.2,-999.9,47,-99.99,,,-99.99,,2013-07-19 15:40:00,
2013-07-19 11:46:00,96.8,73.4,30.23,SSE,149,1.2,-999.9,47,-99.99,,,-99.99,,2013-07-19 15:46:00,
2013-07-19 11:52:00,96.8,73.4,30.22,SSE,167,6.9,-999.9,47,-99.99,,,-99.99,,2013-07-19 15:52:00,
2013-07-19 11:58:00,96.8,73.4,30.22,SSE,167,6.9,-999.9,47,-99.99,,,-99.99,,2013-07-19 15:58:00,
2013-07-19 12:04:00,96.8,73.4,30.22,SSE,151,2.3,-999.9,47,-99.99,,,-99.99,,2013-07-19 16:04:00,
2013-07-19 12:10:00,96.8,73.4,30.22,SSE,151,2.3,-999.9,47,-99.99,,,-99.99,,2013-07-19 16:10:00,
2013-07-19 12:16:00,96.8,73.4,30.22,SE,142,5.8,-999.9,47,-99.99,,,-99.99,,2013-07-19 16:16:00,
2013-07-19 12:22:00,96.8,73.4,30.22,SE,146,5.8,-999.9,47,-99.99,,,-99.99,,2013-07-19 16:22:00,
2013-07-19 12:28:00,96.8,73.4,30.22,SE,146,5.8,-999.9,47,-99.99,,,-99.99,,2013-07-19 16:28:00,
2013-07-19 12:34:00,96.8,71.6,30.21,North,0,0.0,-999.9,44,-99.99,,,-99.99,,2013-07-19 16:34:00,
2013-07-19 12:40:00,96.8,71.6,30.21,North,0,0.0,-999.9,44,-99.99,,,-99.99,,2013-07-19 16:40:00,
2013-07-19 12:46:00,96.8,71.6,30.21,ESE,112,3.5,-999.9,44,-99.99,,,-99.99,,2013-07-19 16:46:00,
2013-07-19 12:52:00,96.8,73.4,30.21,NE,44,2.3,-999.9,47,-99.99,,,-99.99,,2013-07-19 16:52:00,
2013-07-19 12:58:00,96.8,73.4,30.21,NE,44,2.3,-999.9,47,-99.99,,,-99.99,,2013-07-19 16:58:00,
2013-07-19 13:04:00,96.8,71.6,30.20,SSE,147,3.5,-999.9,44,-99.99,,,-99.99,,2013-07-19 17:04:00,
2013-07-19 13:10:00,96.8,71.6,30.20,SSE,147,3.5,-999.9,44,-99.99,,,-99.99,,2013-07-19 17:10:00,
2013-07-19 13:16:00,96.8,71.6,30.20,SSE,147,3.5,-999.9,44,-99.99,,,-99.99,,2013-07-19 17:16:00,
2013-07-19 13:22:00,96.8,73.4,30.19,SSE,162,6.9,-999.9,47,-99.99,,,-99.99,,2013-07-19 17:22:00,
2013-07-19 13:28:00,96.8,73.4,30.19,SSE,162,6.9,-999.9,47,-99.99,,,-99.99,,2013-07-19 17:28:00,
2013-07-19 13:34:00,96.8,73.4,30.19,SE,127,8.1,-999.9,47,-99.99,,,-99.99,,2013-07-19 17:34:00,
2013-07-19 13:40:00,96.8,73.4,30.19,SE,127,8.1,-999.9,47,-99.99,,,-99.99,,2013-07-19 17:40:00,
2013-07-19 13:46:00,96.8,71.6,30.19,ESE,102,3.5,-999.9,44,-99.99,,,-99.99,,2013-07-19 17:46:00,
2013-07-19 13:52:00,96.8,71.6,30.19,South,174,5.8,-999.9,44,-99.99,,,-99.99,,2013-07-19 17:52:00,
2013-07-19 13:58:00,96.8,71.6,30.19,South,174,5.8,-999.9,44,-99.99,,,-99.99,,2013-07-19 17:58:00,
2013-07-19 14:04:00,98.6,73.4,30.19,SSE,151,4.6,-999.9,44,-99.99,,,-99.99,,2013-07-19 18:04:00,
2013-07-19 14:10:00,98.6,73.4,30.19,SSE,151,4.6,-999.9,44,-99.99,,,-99.99,,2013-07-19 18:10:00,
2013-07-19 14:16:00,98.6,71.6,30.18,SSE,156,6.9,-999.9,42,-99.99,,,-99.99,,2013-07-19 18:16:00,
2013-07-19 14:22:00,98.6,71.6,30.18,SSE,156,6.9,-999.9,42,-99.99,,,-99.99,,2013-07-19 18:22:00,
2013-07-19 14:28:00,98.6,71.6,30.18,SSE,156,6.9,-999.9,42,-99.99,,,-99.99,,2013-07-19 18:28:00,
2013-07-19 14:34:00,96.8,71.6,30.17,SSE,151,4.6,-999.9,44,-99.99,,,-99.99,,2013-07-19 18:34:00,
2013-07-19 14:40:00,96.8,71.6,30.17,SSE,151,4.6,-999.9,44,-99.99,,,-99.99,,2013-07-19 18:40:00,
2013-07-19 14:46:00,98.6,71.6,30.17,SSE,153,5.8,-999.9,42,-99.99,,,-99.99,,2013-07-19 18:46:00,
2013-07-19 14:52:00,98.6,71.6,30.17,SSE,147,8.1,-999.9,42,-99.99,,,-99.99,,2013-07-19 18:52:00,
2013-07-19 14:58:00,98.6,71.6,30.17,SSE,147,8.1,-999.9,42,-99.99,,,-99.99,,2013-07-19 18:58:00,
2013-07-19 15:04:00,96.8,69.8,30.16,SSE,150,2.3,-999.9,41,-99.99,,,-99.99,,2013-07-19 19:04:00,
2013-07-19 15:10:00,96.8,69.8,30.16,SSE,150,2.3,-999.9,41,-99.99,,,-99.99,,2013-07-19 19:10:00,
2013-07-19 15:16:00,98.6,71.6,30.16,SSE,154,4.6,-999.9,42,-99.99,,,-99.99,,2013-07-19 19:16:00,
2013-07-19 15:22:00,96.8,69.8,30.15,East,88,1.2,-999.9,41,-99.99,,,-99.99,,2013-07-19 19:22:00,
2013-07-19 15:28:00,96.8,69.8,30.15,East,88,1.2,-999.9,41,-99.99,,,-99.99,,2013-07-19 19:28:00,
2013-07-19 15:34:00,98.6,71.6,30.15,SSE,148,4.6,-999.9,42,-99.99,,,-99.99,,2013-07-19 19:34:00,
2013-07-19 15:40:00,98.6,71.6,30.15,SSE,148,4.6,-999.9,42,-99.99,,,-99.99,,2013-07-19 19:40:00,
2013-07-19 15:46:00,96.8,69.8,30.15,South,184,1.2,-999.9,41,-99.99,,,-99.99,,2013-07-19 19:46:00,
2013-07-19 15:52:00,96.8,69.8,30.14,South,185,3.5,-999.9,41,-99.99,,,-99.99,,2013-07-19 19:52:00,
2013-07-19 15:58:00,96.8,69.8,30.14,South,185,3.5,-999.9,41,-99.99,,,-99.99,,2013-07-19 19:58:00,
2013-07-19 16:04:00,96.8,69.8,30.14,ESE,121,4.6,-999.9,41,-99.99,,,-99.99,,2013-07-19 20:04:00,
2013-07-19 16:10:00,96.8,69.8,30.14,ESE,121,4.6,-999.9,41,-99.99,,,-99.99,,2013-07-19 20:10:00,
2013-07-19 16:16:00,96.8,71.6,30.14,SE,144,1.2,-999.9,44,-99.99,,,-99.99,,2013-07-19 20:16:00,
2013-07-19 16:22:00,96.8,71.6,30.14,SE,141,4.6,-999.9,44,-99.99,,,-99.99,,2013-07-19 20:22:00,
2013-07-19 16:28:00,96.8,71.6,30.14,SE,141,4.6,-999.9,44,-99.99,,,-99.99,,2013-07-19 20:28:00,
2013-07-19 16:34:00,96.8,71.6,30.13,SSE,150,5.8,-999.9,44,-99.99,,,-99.99,,2013-07-19 20:34:00,
2013-07-19 16:40:00,96.8,71.6,30.13,SSE,150,5.8,-999.9,44,-99.99,,,-99.99,,2013-07-19 20:40:00,
2013-07-19 16:46:00,96.8,71.6,30.13,ESE,104,2.3,-999.9,44,-99.99,,,-99.99,,2013-07-19 20:46:00,
2013-07-19 16:52:00,96.8,71.6,30.13,SSE,148,4.6,-999.9,44,-99.99,,,-99.99,,2013-07-19 20:52:00,
2013-07-19 16:58:00,96.8,71.6,30.13,SSE,148,4.6,-999.9,44,-99.99,,,-99.99,,2013-07-19 20:58:00,
2013-07-19 17:04:00,95.0,69.8,30.13,NNE,30,1.2,-999.9,44,-99.99,,,-99.99,,2013-07-19 21:04:00,
2013-07-19 17:10:00,95.0,69.8,30.13,NNE,30,1.2,-999.9,44,-99.99,,,-99.99,,2013-07-19 21:10:00,
2013-07-19 17:16:00,95.0,71.6,30.13,SSW,199,0.0,-999.9,47,-99.99,,,-99.99,,2013-07-19 21:16:00,
2013-07-19 17:22:00,95.0,71.6,30.12,SSE,158,2.3,-999.9,47,-99.99,,,-99.99,,2013-07-19 21:22:00,
2013-07-19 17:28:00,95.0,71.6,30.12,SSE,158,2.3,-999.9,47,-99.99,,,-99.99,,2013-07-19 21:28:00,
2013-07-19 17:34:00,95.0,71.6,30.12,SSE,166,1.2,-999.9,47,-99.99,,,-99.99,,2013-07-19 21:34:00,
2013-07-19 17:40:00,95.0,71.6,30.12,SSE,166,1.2,-999.9,47,-99.99,,,-99.99,,2013-07-19 21:40:00,
2013-07-19 17:46:00,95.0,71.6,30.11,SSE,148,11.5,-999.9,47,-99.99,,,-99.99,,2013-07-19 21:46:00,
2013-07-19 17:52:00,95.0,73.4,30.11,South,174,2.3,-999.9,49,-99.99,,,-99.99,,2013-07-19 21:52:00,
2013-07-19 17:58:00,95.0,73.4,30.11,South,174,2.3,-999.9,49,-99.99,,,-99.99,,2013-07-19 21:58:00,
2013-07-19 18:04:00,95.0,73.4,30.11,SE,141,6.9,-999.9,49,-99.99,,,-99.99,,2013-07-19 22:04:00,
2013-07-19 18:10:00,95.0,73.4,30.11,SE,141,6.9,-999.9,49,-99.99,,,-99.99,,2013-07-19 22:10:00,
2013-07-19 18:16:00,93.2,71.6,30.12,ESE,112,1.2,-999.9,49,-99.99,,,-99.99,,2013-07-19 22:16:00,
2013-07-19 18:22:00,93.2,73.4,30.12,SSE,167,0.0,-999.9,52,-99.99,,,-99.99,,2013-07-19 22:22:00,
2013-07-19 18:28:00,93.2,73.4,30.12,SSE,167,0.0,-999.9,52,-99.99,,,-99.99,,2013-07-19 22:28:00,
2013-07-19 18:34:00,93.2,73.4,30.12,SSE,159,2.3,-999.9,52,-99.99,,,-99.99,,2013-07-19 22:34:00,
2013-07-19 18:40:00,93.2,73.4,30.12,SSE,159,2.3,-999.9,52,-99.99,,,-99.99,,2013-07-19 22:40:00,
2013-07-19 18:46:00,93.2,71.6,30.12,SE,144,9.2,-999.9,49,-99.99,,,-99.99,,2013-07-19 22:46:00,
2013-07-19 19:02:00,93.2,71.6,30.12,SSE,157,1.2,-999.9,49,-99.99,,,-99.99,,2013-07-19 23:02:00,
2013-07-19 19:08:00,93.2,71.6,30.12,SSE,157,1.2,-999.9,49,-99.99,,,-99.99,,2013-07-19 23:08:00,
2013-07-19 19:14:00,91.4,71.6,30.12,South,185,0.0,-999.9,52,-99.99,,,-99.99,,2013-07-19 23:14:00,
2013-07-19 19:20:00,91.4,71.6,30.12,South,185,0.0,-999.9,52,-99.99,,,-99.99,,2013-07-19 23:20:00,
2013-07-19 19:26:00,91.4,71.6,30.12,SSW,211,1.2,-999.9,52,-99.99,,,-99.99,,2013-07-19 23:26:00,
2013-07-19 19:32:00,91.4,73.4,30.13,South,185,1.2,-999.9,55,-99.99,,,-99.99,,2013-07-19 23:32:00,
2013-07-19 19:38:00,91.4,73.4,30.13,South,185,1.2,-999.9,55,-99.99,,,-99.99,,2013-07-19 23:38:00,
2013-07-19 19:44:00,91.4,73.4,30.13,South,184,0.0,-999.9,55,-99.99,,,-99.99,,2013-07-19 23:44:00,
2013-07-19 19:50:00,91.4,73.4,30.13,South,184,0.0,-999.9,55,-99.99,,,-99.99,,2013-07-19 23:50:00,
2013-07-19 19:56:00,91.4,73.4,30.13,SSE,152,4.6,-999.9,55,-99.99,,,-99.99,,2013-07-19 23:56:00,
2013-07-19 21:02:00,89.6,75.2,30.16,SE,144,1.2,-999.9,62,-99.99,,,-99.99,,2013-07-20 01:02:00,
2013-07-19 21:08:00,89.6,75.2,30.16,SE,144,1.2,-999.9,62,-99.99,,,-99.99,,2013-07-20 01:08:00,
2013-07-19 21:14:00,89.6,75.2,30.16,South,173,3.5,-999.9,62,-99.99,,,-99.99,,2013-07-20 01:14:00,
2013-07-19 21:20:00,89.6,75.2,30.16,South,173,3.5,-999.9,62,-99.99,,,-99.99,,2013-07-20 01:20:00,
2013-07-19 21:26:00,89.6,75.2,30.16,SSE,165,3.5,-999.9,62,-99.99,,,-99.99,,2013-07-20 01:26:00,
2013-07-19 21:32:00,89.6,75.2,30.16,SSW,197,1.2,-999.9,62,-99.99,,,-99.99,,2013-07-20 01:32:00,
2013-07-19 21:38:00,89.6,75.2,30.16,SSW,197,1.2,-999.9,62,-99.99,,,-99.99,,2013-07-20 01:38:00,
2013-07-19 21:44:00,87.8,75.2,30.16,SSW,203,1.2,-999.9,66,-99.99,,,-99.99,,2013-07-20 01:44:00,
2013-07-19 21:50:00,87.8,75.2,30.16,SSW,203,1.2,-999.9,66,-99.99,,,-99.99,,2013-07-20 01:50:00,
2013-07-19 21:56:00,87.8,75.2,30.16,SSE,163,3.5,-999.9,66,-99.99,,,-99.99,,2013-07-20 01:56:00,
2013-07-19 22:02:00,87.8,75.2,30.16,SSE,162,2.3,-999.9,66,-99.99,,,-99.99,,2013-07-20 02:02:00,
2013-07-19 22:08:00,87.8,75.2,30.16,SSE,162,2.3,-999.9,66,-99.99,,,-99.99,,2013-07-20 02:08:00,
2013-07-19 22:14:00,87.8,75.2,30.16,SSE,157,2.3,-999.9,66,-99.99,,,-99.99,,2013-07-20 02:14:00,
2013-07-19 22:20:00,87.8,75.2,30.16,SSE,157,2.3,-999.9,66,-99.99,,,-99.99,,2013-07-20 02:20:00,
2013-07-19 22:26:00,87.8,75.2,30.15,SSE,152,3.5,-999.9,66,-99.99,,,-99.99,,2013-07-20 02:26:00,
2013-07-19 22:32:00,87.8,73.4,30.15,SE,143,3.5,-999.9,62,-99.99,,,-99.99,,2013-07-20 02:32:00,
2013-07-19 22:38:00,87.8,73.4,30.15,SE,143,3.5,-999.9,62,-99.99,,,-99.99,,2013-07-20 02:38:00,
2013-07-19 22:44:00,87.8,73.4,30.14,SW,230,0.0,-999.9,62,-99.99,,,-99.99,,2013-07-20 02:44:00,
2013-07-19 22:50:00,87.8,73.4,30.14,SW,230,0.0,-999.9,62,-99.99,,,-99.99,,2013-07-20 02:50:00,
2013-07-19 22:56:00,87.8,73.4,30.13,SSE,159,2.3,-999.9,62,-99.99,,,-99.99,,2013-07-20 02:56:00,
2013-07-19 23:02:00,86.0,71.6,30.13,SSE,160,1.2,-999.9,62,-99.99,,,-99.99,,2013-07-20 03:02:00,
2013-07-19 23:08:00,86.0,71.6,30.13,SSE,160,1.2,-999.9,62,-99.99,,,-99.99,,2013-07-20 03:08:00,
2013-07-19 23:14:00,86.0,71.6,30.13,North,0,0.0,-999.9,62,-99.99,,,-99.99,,2013-07-20 03:14:00,
2013-07-19 23:20:00,86.0,71.6,30.13,North,0,0.0,-999.9,62,-99.99,,,-99.99,,2013-07-20 03:20:00,
2013-07-19 23:26:00,86.0,73.4,30.13,North,0,0.0,-999.9,66,-99.99,,,-99.99,,2013-07-20 03:26:00,
2013-07-19 23:32:00,86.0,73.4,30.14,North,0,0.0,-999.9,66,-99.99,,,-99.99,,2013-07-20 03:32:00,
2013-07-19 23:38:00,86.0,73.4,30.14,North,0,0.0,-999.9,66,-99.99,,,-99.99,,2013-07-20 03:38:00,
2013-07-19 23:44:00,86.0,73.4,30.14,North,0,0.0,-999.9,66,-99.99,,,-99.99,,2013-07-20 03:44:00,
2013-07-19 23:50:00,86.0,73.4,30.14,North,0,0.0,-999.9,66,-99.99,,,-99.99,,2013-07-20 03:50:00,
2013-07-19 23:56:00,86.0,73.4,30.14,SE,135,1.2,-999.9,66,-99.99,,,-99.99,,2013-07-20 03:56:00,